Time;durP1;ratioP1;P1;durP2;ratioP2;P2;SDS_P1;SDS_P2;PMS_P1;PMS_P2;Temp;Humidity;BMP_temperature;BMP_pressure;BME280_temperature;BME280_humidity;BME280_pressure;Samples;Min_cycle;Max_cycle;Signal;HPM_P1;HPM_P2
2021/07/01 00:01:45;;;;;;;1.73;0.73;;;;;;;;;;5075889;28;20813;-87
2021/07/01 00:04:13;;;;;;;0.50;0.33;;;;;;;;;;5076436;28;20450;-92
2021/07/01 00:06:40;;;;;;;0.80;0.50;;;;;;;;;;5072781;28;20457;-91
2021/07/01 00:09:13;;;;;;;0.50;0.33;;;;;;;;;;5075873;28;20493;-93
2021/07/01 00:11:40;;;;;;;1.13;0.77;;;;;;;;;;5075989;28;20500;-87
2021/07/01 00:14:07;;;;;;;0.40;0.37;;;;;;;;;;5074093;28;20482;-90
2021/07/01 00:16:36;;;;;;;3.70;0.70;;;12.00;99.90;;;;;;5083768;28;20478;-89
2021/07/01 00:19:05;;;;;;;1.90;0.70;;;;;;;;;;5100612;22;20462;-91
2021/07/01 00:21:32;;;;;;;0.50;0.40;;;;;;;;;;5102846;28;20463;-93
2021/07/01 00:27:03;;;;;;;0.70;0.70;;;;;;;;;;5081159;28;20504;-94
2021/07/01 00:29:31;;;;;;;0.60;0.50;;;;;;;;;;5222590;22;20555;-91
2021/07/01 00:31:59;;;;;;;1.50;0.70;;;;;;;;;;5110422;22;20798;-92
2021/07/01 00:34:26;;;;;;;0.80;0.57;;;;;;;;;;5067346;28;20482;-93
2021/07/01 00:36:55;;;;;;;0.80;0.70;;;12.00;99.90;;;;;;5095064;22;20979;-92
2021/07/01 00:39:40;;;;;;;0.50;0.50;;;12.00;99.90;;;;;;5175269;22;20502;-93
2021/07/01 00:45:13;;;;;;;1.00;0.60;;;12.00;99.90;;;;;;5128019;28;20439;-93
2021/07/01 00:47:47;;;;;;;0.60;0.50;;;;;;;;;;5131463;28;20539;-93
2021/07/01 00:50:50;;;;;;;1.17;0.57;;;12.00;99.90;;;;;;5131339;28;20502;-93
2021/07/01 00:53:38;;;;;;;0.50;0.50;;;12.00;99.90;;;;;;5110087;22;20992;-93
2021/07/01 00:56:21;;;;;;;0.80;0.50;;;12.10;99.90;;;;;;5083302;28;20811;-92
2021/07/01 00:58:55;;;;;;;1.83;0.50;;;12.10;99.90;;;;;;5094730;28;20529;-93
2021/07/01 01:01:39;;;;;;;0.40;0.30;;;12.00;99.90;;;;;;5102699;22;20463;-93
2021/07/01 01:06:59;;;;;;;1.10;0.40;;;;;;;;;;5104245;28;20444;-93
2021/07/01 01:09:27;;;;;;;0.67;0.50;;;;;;;;;;5131281;22;20494;-93
2021/07/01 01:12:03;;;;;;;0.47;0.33;;;;;;;;;;5130513;28;20436;-93
2021/07/01 01:14:31;;;;;;;0.97;0.40;;;;;;;;;;5123837;28;20472;-93
2021/07/01 01:16:58;;;;;;;0.50;0.40;;;;;;;;;;5124325;28;20444;-93
2021/07/01 01:22:56;;;;;;;1.20;0.40;;;12.00;99.90;;;;;;5049742;28;21032;-92
2021/07/01 01:25:26;;;;;;;0.57;0.40;;;12.00;99.90;;;;;;5049796;28;20452;-93
2021/07/01 01:28:27;;;;;;;1.47;0.57;;;12.00;99.90;;;;;;5048572;28;20495;-94
2021/07/01 01:33:20;;;;;;;0.60;0.40;;;;;;;;;;5163435;22;20479;-92
2021/07/01 01:35:48;;;;;;;1.90;0.50;;;;;;;;;;5124107;22;20211;-87
2021/07/01 01:43:58;;;;;;;1.07;0.60;;;;;;;;;;5077817;28;20591;-87
2021/07/01 01:46:40;;;;;;;1.53;0.53;;;11.90;99.90;;;;;;5085472;28;20477;-93
2021/07/01 01:51:37;;;;;;;0.60;0.57;;;11.90;99.90;;;;;;5145075;22;20464;-92
2021/07/01 01:57:26;;;;;;;0.70;0.70;;;11.90;99.90;;;;;;5205200;22;20484;-91
2021/07/01 02:02:44;;;;;;;3.03;0.93;;;;;;;;;;5108910;28;20808;-93
2021/07/01 02:05:27;;;;;;;0.53;0.43;;;;;;;;;;5111058;28;20436;-93
2021/07/01 02:07:54;;;;;;;1.87;0.60;;;;;;;;;;5116532;22;20498;-91
2021/07/01 02:10:25;;;;;;;0.70;0.70;;;12.10;99.90;;;;;;5104954;28;20441;-92
2021/07/01 02:13:13;;;;;;;0.77;0.53;;;11.90;99.90;;;;;;5110299;28;20437;-93
2021/07/01 02:15:45;;;;;;;0.63;0.63;;;11.90;99.90;;;;;;5088913;28;20458;-92
2021/07/01 02:18:32;;;;;;;0.50;0.50;;;11.90;99.90;;;;;;5181990;22;20495;-92
2021/07/01 02:23:25;;;;;;;0.80;0.47;;;;;;;;;;5118628;22;20492;-91
2021/07/01 02:25:53;;;;;;;0.90;0.70;;;11.90;99.90;;;;;;5109279;28;20234;-92
2021/07/01 02:28:20;;;;;;;0.60;0.50;;;;;;;;;;5121413;22;20551;-93
2021/07/01 02:31:26;;;;;;;1.30;0.63;;;11.90;99.90;;;;;;5108762;22;20538;-94
2021/07/01 02:33:53;;;;;;;1.03;0.60;;;;;;;;;;5106135;28;20428;-92
2021/07/01 02:39:56;;;;;;;3.53;0.90;;;11.90;99.90;;;;;;5120036;22;20472;-91
2021/07/01 02:42:24;;;;;;;0.97;0.60;;;;;;;;;;5109817;28;20461;-93
2021/07/01 02:44:52;;;;;;;0.63;0.50;;;;;;;;;;5101487;28;20429;-93
2021/07/01 02:47:19;;;;;;;0.73;0.70;;;;;;;;;;5118372;22;20473;-93
2021/07/01 02:49:49;;;;;;;2.00;0.60;;;;;;;;;;5114558;22;20909;-93
2021/07/01 02:55:01;;;;;;;0.53;0.53;;;;;;;;;;3067245;22;20460;-92
2021/07/01 02:57:39;;;;;;;0.60;0.50;;;;;;;;;;5164341;22;20492;-93
2021/07/01 03:03:05;;;;;;;0.60;0.50;;;;;;;;;;5115705;22;20523;-93
2021/07/01 03:05:33;;;;;;;1.27;0.50;;;;;;;;;;5122458;22;20469;-93
2021/07/01 03:08:00;;;;;;;0.50;0.50;;;;;;;;;;5130230;22;20487;-90
2021/07/01 03:10:36;;;;;;;0.93;0.73;;;;;;;;;;5134241;27;20546;-93
2021/07/01 03:13:05;;;;;;;0.60;0.60;;;;;;;;;;5122835;28;20446;-94
2021/07/01 03:18:17;;;;;;;0.50;0.40;;;11.90;99.90;;;;;;5126832;28;20935;-93
2021/07/01 03:23:29;;;;;;;0.80;0.50;;;;;;;;;;5104636;28;20425;-93
2021/07/01 03:25:57;;;;;;;2.30;0.77;;;;;;;;;;5119676;22;20480;-93
2021/07/01 03:28:25;;;;;;;1.67;0.93;;;12.00;99.90;;;;;;5113568;22;20487;-92
2021/07/01 03:33:33;;;;;;;1.27;1.17;;;;;;;;;;5218733;22;20455;-93
2021/07/01 03:36:05;;;;;;;0.90;0.60;;;12.00;99.90;;;;;;5112505;28;20445;-92
2021/07/01 03:38:33;;;;;;;2.63;0.70;;;;;;;;;;5120626;22;20552;-94
2021/07/01 03:41:00;;;;;;;0.80;0.70;;;;;;;;;;5106403;28;20846;-89
2021/07/01 03:46:37;;;;;;;1.67;0.87;;;12.20;99.90;;;;;;5160140;22;20581;-90
2021/07/01 03:49:04;;;;;;;2.07;0.80;;;;;;;;;;5133095;22;20480;-94
2021/07/01 03:51:55;;;;;;;1.10;1.00;;;12.00;99.90;;;;;;5148363;22;20442;-94
2021/07/01 03:54:22;;;;;;;1.00;0.90;;;;;;;;;;5090935;28;20462;-94
2021/07/01 03:57:11;;;;;;;5.10;0.90;;;12.10;99.90;;;;;;5088444;28;20481;-94
2021/07/01 03:59:39;;;;;;;1.30;1.10;;;;;;;;;;5085299;28;20441;-94
2021/07/01 04:02:25;;;;;;;1.00;0.90;;;12.10;99.90;;;;;;5089767;28;20441;-95
2021/07/01 04:04:52;;;;;;;0.70;0.60;;;;;;;;;;5107153;22;20502;-92
2021/07/01 04:07:19;;;;;;;1.23;0.80;;;;;;;;;;5147693;22;20491;-92
2021/07/01 04:09:48;;;;;;;1.77;0.80;;;;;;;;;;5151559;22;20471;-93
2021/07/01 04:12:42;;;;;;;1.80;1.13;;;12.10;99.90;;;;;;5140775;22;20463;-93
2021/07/01 04:15:09;;;;;;;0.70;0.70;;;;;;;;;;5135371;28;20442;-88
2021/07/01 04:17:38;;;;;;;1.50;0.70;;;;;;;;;;5116719;28;20456;-88
2021/07/01 04:20:05;;;;;;;1.73;0.53;;;;;;;;;;5111321;28;20447;-88
2021/07/01 04:22:33;;;;;;;1.37;1.10;;;;;;;;;;5113852;28;20462;-89
2021/07/01 04:25:00;;;;;;;1.20;1.07;;;;;;;;;;5111433;28;20483;-88
2021/07/01 04:27:27;;;;;;;1.33;0.60;;;;;;;;;;5109479;28;20455;-88
2021/07/01 04:29:54;;;;;;;0.90;0.80;;;11.60;99.90;;;;;;5111681;28;20444;-90
2021/07/01 04:32:22;;;;;;;1.70;1.10;;;11.90;99.90;;;;;;5110830;28;20444;-88
2021/07/01 04:34:50;;;;;;;0.70;0.70;;;12.20;99.90;;;;;;5111131;28;20455;-89
2021/07/01 04:37:17;;;;;;;3.60;1.03;;;12.20;99.90;;;;;;5109616;28;20841;-90
2021/07/01 04:39:44;;;;;;;0.80;0.70;;;;;;;;;;5109109;28;20436;-88
2021/07/01 04:42:12;;;;;;;1.30;0.90;;;12.30;99.90;;;;;;5111798;28;20459;-88
2021/07/01 04:44:39;;;;;;;1.00;0.80;;;;;;;;;;5109041;28;20454;-88
2021/07/01 04:47:06;;;;;;;0.63;0.63;;;12.10;99.90;;;;;;5107311;28;20448;-88
2021/07/01 04:49:33;;;;;;;1.07;0.80;;;;;;;;;;5109985;28;20483;-88
2021/07/01 04:52:02;;;;;;;0.83;0.67;;;12.50;99.90;;;;;;5111421;28;20448;-91
2021/07/01 04:54:29;;;;;;;1.43;0.93;;;12.60;99.90;;;;;;5105633;28;20451;-89
2021/07/01 04:56:56;;;;;;;2.30;0.90;;;;;;;;;;5103211;28;20455;-88
2021/07/01 04:59:23;;;;;;;1.67;1.57;;;12.10;99.90;;;;;;5096182;28;20448;-92
2021/07/01 05:01:49;;;;;;;1.93;1.10;;;12.50;99.90;;;;;;5096023;28;20456;-89
2021/07/01 05:04:17;;;;;;;1.70;0.80;;;;;;;;;;5101012;28;20931;-91
2021/07/01 05:06:45;;;;;;;1.00;0.90;;;12.30;99.90;;;;;;5100792;28;20515;-91
2021/07/01 05:09:14;;;;;;;1.20;1.10;;;12.10;99.90;;;;;;5103367;28;20445;-90
2021/07/01 05:11:42;;;;;;;2.30;1.23;;;12.30;99.90;;;;;;5095401;28;20469;-89
2021/07/01 05:14:09;;;;;;;1.30;1.20;;;;;;;;;;5094829;28;20827;-91
2021/07/01 05:16:36;;;;;;;0.93;0.87;;;12.50;99.90;;;;;;5093362;28;20460;-89
2021/07/01 05:19:05;;;;;;;1.00;0.90;;;12.40;99.90;;;;;;5094814;28;20448;-89
2021/07/01 05:21:32;;;;;;;1.33;1.23;;;;;;;;;;5096972;28;20445;-90
2021/07/01 05:24:00;;;;;;;1.20;1.10;;;;;;;;;;5097797;28;20441;-88
2021/07/01 05:26:28;;;;;;;2.37;1.40;;;12.00;99.90;;;;;;5097717;28;20495;-90
2021/07/01 05:28:55;;;;;;;1.30;1.00;;;;;;;;;;5095409;28;20433;-87
2021/07/01 05:31:22;;;;;;;1.20;1.10;;;12.40;99.90;;;;;;5097661;28;20457;-94
2021/07/01 05:33:50;;;;;;;1.13;0.97;;;;;;;;;;5092111;28;20449;-89
2021/07/01 05:36:17;;;;;;;1.10;0.80;;;;;;;;;;5085334;28;20449;-90
2021/07/01 05:38:44;;;;;;;2.27;1.40;;;12.50;99.90;;;;;;5076760;28;20499;-90
2021/07/01 05:41:15;;;;;;;2.27;1.30;;;;;;;;;;5076823;28;20453;-90
2021/07/01 05:43:47;;;;;;;3.50;1.23;;;12.60;99.90;;;;;;5083425;28;20490;-93
2021/07/01 05:46:14;;;;;;;1.20;1.10;;;;;;;;;;5084735;28;21015;-89
2021/07/01 05:48:42;;;;;;;1.40;1.30;;;;;;;;;;5084154;28;20842;-88
2021/07/01 05:51:13;;;;;;;4.43;1.40;;;;;;;;;;5085213;28;20460;-91
2021/07/01 05:53:46;;;;;;;4.03;1.30;;;;;;;;;;5096015;28;20538;-91
2021/07/01 05:56:14;;;;;;;10.97;4.57;;;13.00;99.90;;;;;;5096214;28;20444;-94
2021/07/01 05:58:41;;;;;;;17.63;4.60;;;;;;;;;;5095858;28;20436;-92
2021/07/01 06:01:09;;;;;;;15.47;5.07;;;12.40;99.90;;;;;;5096323;28;20452;-88
2021/07/01 06:03:36;;;;;;;16.60;5.30;;;;;;;;;;5095988;28;20496;-91
2021/07/01 06:06:11;;;;;;;7.60;3.53;;;13.10;99.90;;;;;;5097096;28;20485;-93
2021/07/01 06:08:38;;;;;;;11.77;4.83;;;;;;;;;;5093642;28;20788;-94
2021/07/01 06:11:07;;;;;;;7.43;3.63;;;12.90;99.90;;;;;;5099510;28;20445;-91
2021/07/01 06:13:37;;;;;;;7.43;6.00;;;12.90;99.90;;;;;;5097469;28;20472;-93
2021/07/01 06:16:06;;;;;;;4.60;3.30;;;12.50;99.90;;;;;;5100277;28;20446;-92
2021/07/01 06:18:34;;;;;;;1.93;1.57;;;13.10;99.90;;;;;;5093106;28;20445;-92
2021/07/01 06:21:01;;;;;;;2.93;1.40;;;12.90;99.90;;;;;;5101802;28;20441;-95
2021/07/01 06:23:28;;;;;;;5.27;1.43;;;;;;;;;;5104235;28;20433;-95
2021/07/01 06:25:57;;;;;;;1.30;1.20;;;;;;;;;;5099323;28;20460;-94
2021/07/01 06:28:29;;;;;;;1.10;1.00;;;;;;;;;;5094800;22;20509;-88
2021/07/01 06:33:25;;;;;;;1.10;1.00;;;;;;;;;;5077676;28;20485;-93
2021/07/01 06:35:57;;;;;;;1.50;1.00;;;13.00;99.90;;;;;;5073599;28;20453;-90
2021/07/01 06:38:25;;;;;;;1.37;1.27;;;;;;;;;;5072655;28;20856;-94
2021/07/01 06:40:53;;;;;;;1.40;1.30;;;13.20;99.90;;;;;;5075427;28;20454;-94
2021/07/01 06:43:21;;;;;;;1.57;1.47;;;13.20;99.90;;;;;;5068842;28;20965;-92
2021/07/01 06:45:50;;;;;;;6.13;1.60;;;13.90;99.90;;;;;;5068617;28;20515;-93
2021/07/01 06:48:17;;;;;;;1.50;1.40;;;13.30;99.90;;;;;;5070982;28;20457;-94
2021/07/01 06:50:45;;;;;;;6.13;1.60;;;;;;;;;;5010541;28;20535;-93
2021/07/01 06:53:14;;;;;;;1.73;1.57;;;13.30;99.90;;;;;;5012384;28;20491;-93
2021/07/01 06:55:44;;;;;;;1.53;1.43;;;13.40;99.90;;;;;;5013736;28;20456;-93
2021/07/01 06:58:12;;;;;;;2.00;1.80;;;;;;;;;;5029266;28;20440;-93
2021/07/01 07:00:39;;;;;;;1.93;1.50;;;;;;;;;;5035681;28;20464;-92
2021/07/01 07:03:07;;;;;;;3.87;1.70;;;;;;;;;;5012464;28;20452;-91
2021/07/01 07:05:35;;;;;;;1.97;1.77;;;13.10;99.90;;;;;;5017887;28;20476;-93
2021/07/01 07:08:05;;;;;;;2.40;1.87;;;;;;;;;;4966740;28;20551;-93
2021/07/01 07:10:38;;;;;;;1.70;1.40;;;13.40;99.90;;;;;;5016304;28;20903;-92
2021/07/01 07:13:06;;;;;;;3.03;2.00;;;;;;;;;;5013836;28;20457;-93
2021/07/01 07:15:33;;;;;;;2.23;2.03;;;;;;;;;;5013246;28;20496;-90
2021/07/01 07:18:07;;;;;;;4.27;2.33;;;13.90;99.90;;;;;;5013033;28;20464;-92
2021/07/01 07:20:38;;;;;;;2.30;2.03;;;13.90;99.90;;;;;;5012625;28;20948;-90
2021/07/01 07:23:06;;;;;;;3.90;2.20;;;;;;;;;;5013702;28;20836;-94
2021/07/01 07:25:40;;;;;;;2.20;2.00;;;13.90;99.90;;;;;;5026983;28;20445;-90
2021/07/01 07:28:09;;;;;;;4.60;2.10;;;14.00;99.90;;;;;;5071631;28;20452;-89
2021/07/01 07:30:37;;;;;;;4.90;2.40;;;;;;;;;;5074760;28;20469;-93
2021/07/01 07:33:06;;;;;;;1.70;1.60;;;14.10;99.90;;;;;;5076746;28;20485;-91
2021/07/01 07:35:33;;;;;;;2.30;2.10;;;;;;;;;;5070511;28;20525;-92
2021/07/01 07:38:02;;;;;;;2.00;1.80;;;;;;;;;;5075648;28;20929;-93
2021/07/01 07:40:30;;;;;;;2.93;2.10;;;;;;;;;;5072552;28;20819;-92
2021/07/01 07:43:03;;;;;;;3.93;2.00;;;14.70;99.90;;;;;;5067329;28;20441;-91
2021/07/01 07:45:30;;;;;;;2.17;1.97;;;;;;;;;;5074318;28;20499;-93
2021/07/01 07:47:58;;;;;;;2.30;2.10;;;;;;;;;;5076578;28;20458;-95
2021/07/01 07:50:25;;;;;;;2.10;1.70;;;;;;;;;;5073583;28;20510;-94
2021/07/01 07:52:55;;;;;;;2.77;2.20;;;15.20;99.90;;;;;;5075704;28;20472;-89
2021/07/01 07:55:25;;;;;;;2.23;2.00;;;15.00;99.90;;;;;;5077273;28;20452;-93
2021/07/01 07:57:54;;;;;;;2.60;2.40;;;14.90;99.90;;;;;;5072294;28;20454;-90
2021/07/01 08:00:23;;;;;;;2.53;2.00;;;14.80;99.90;;;;;;5040658;28;20442;-91
2021/07/01 08:02:53;;;;;;;2.07;1.87;;;14.70;99.90;;;;;;5072928;28;20456;-91
2021/07/01 08:05:21;;;;;;;2.20;2.00;;;14.70;99.90;;;;;;5067060;28;20453;-92
2021/07/01 08:07:49;;;;;;;2.53;2.33;;;14.30;99.90;;;;;;5071816;28;20560;-91
2021/07/01 08:10:19;;;;;;;1.80;1.70;;;14.60;99.90;;;;;;5074579;28;20515;-90
2021/07/01 08:12:50;;;;;;;2.37;2.17;;;14.70;99.90;;;;;;5072399;28;20472;-89
2021/07/01 08:15:19;;;;;;;2.50;2.30;;;14.80;99.90;;;;;;5073322;28;20454;-89
2021/07/01 08:17:50;;;;;;;2.03;1.93;;;15.10;99.90;;;;;;5073992;28;20453;-89
2021/07/01 08:20:19;;;;;;;3.53;2.33;;;13.10;99.90;;;;;;5011445;28;20448;-88
2021/07/01 08:22:48;;;;;;;2.87;2.13;;;14.90;99.90;;;;;;5013070;28;20557;-91
2021/07/01 08:25:16;;;;;;;1.87;1.77;;;14.60;99.90;;;;;;5013074;28;20452;-90
2021/07/01 08:27:44;;;;;;;2.57;2.37;;;14.90;99.90;;;;;;5008607;28;20496;-90
2021/07/01 08:30:13;;;;;;;2.00;1.80;;;15.10;99.90;;;;;;5011416;28;20884;-88
2021/07/01 08:32:41;;;;;;;7.57;2.83;;;14.70;99.90;;;;;;5016768;28;20472;-89
2021/07/01 08:35:13;;;;;;;2.50;2.30;;;14.80;99.90;;;;;;5012300;28;20816;-88
2021/07/01 08:37:44;;;;;;;2.70;2.50;;;14.80;99.90;;;;;;5023449;28;20446;-87
2021/07/01 08:40:14;;;;;;;2.30;2.10;;;14.70;99.90;;;;;;5076791;28;20820;-87
2021/07/01 08:42:41;;;;;;;2.30;2.10;;;14.60;99.90;;;;;;5072020;28;20449;-88
2021/07/01 08:45:11;;;;;;;2.80;2.60;;;14.50;99.90;;;;;;5070803;28;20437;-88
2021/07/01 08:47:41;;;;;;;3.00;2.37;;;14.50;99.90;;;;;;5076512;28;20484;-87
2021/07/01 08:50:16;;;;;;;2.77;2.57;;;14.50;99.90;;;;;;5076936;28;20496;-89
2021/07/01 08:52:56;;;;;;;2.63;2.43;;;14.20;99.90;;;;;;5079717;28;20844;-89
2021/07/01 08:55:26;;;;;;;3.33;2.53;;;14.50;99.90;;;;;;5076472;28;20457;-88
2021/07/01 08:57:56;;;;;;;4.30;2.73;;;14.70;99.90;;;;;;5075523;28;20458;-88
2021/07/01 09:00:24;;;;;;;7.50;2.50;;;14.90;99.90;;;;;;5076377;28;20456;-89
2021/07/01 09:03:03;;;;;;;3.20;2.80;;;14.60;99.90;;;;;;5070531;28;20446;-88
2021/07/01 09:05:32;;;;;;;5.40;2.87;;;15.40;99.90;;;;;;5076235;28;20441;-89
2021/07/01 09:08:02;;;;;;;4.37;2.77;;;15.20;99.90;;;;;;5076784;28;20497;-90
2021/07/01 09:10:31;;;;;;;2.67;2.47;;;;;;;;;;5077855;28;20450;-91
2021/07/01 09:13:00;;;;;;;2.90;2.60;;;15.10;99.90;;;;;;5071509;28;20499;-92
2021/07/01 09:15:28;;;;;;;2.70;2.50;;;15.20;99.90;;;;;;5071439;28;20524;-92
2021/07/01 09:17:56;;;;;;;3.13;2.83;;;;;;;;;;5077138;28;20453;-92
2021/07/01 09:20:27;;;;;;;2.83;2.60;;;14.90;99.90;;;;;;5078170;28;20524;-94
2021/07/01 09:22:57;;;;;;;2.80;2.60;;;14.70;99.90;;;;;;5072156;28;20458;-92
2021/07/01 09:25:25;;;;;;;4.53;2.57;;;14.70;99.90;;;;;;5073769;28;20450;-88
2021/07/01 09:27:54;;;;;;;3.47;2.80;;;14.90;99.90;;;;;;5075682;28;20485;-89
2021/07/01 09:30:25;;;;;;;2.67;2.47;;;14.90;99.90;;;;;;5076588;28;20449;-91
2021/07/01 09:32:55;;;;;;;2.10;2.00;;;14.90;99.90;;;;;;5069338;28;20535;-92
2021/07/01 09:35:24;;;;;;;2.67;2.47;;;14.70;99.90;;;;;;5073624;28;20481;-90
2021/07/01 09:37:52;;;;;;;2.67;2.47;;;14.90;99.90;;;;;;5075201;28;20464;-95
2021/07/01 09:40:22;;;;;;;2.83;2.53;;;14.90;99.90;;;;;;5066947;28;20464;-90
2021/07/01 09:42:53;;;;;;;2.73;2.50;;;15.80;99.90;;;;;;5095720;28;20987;-88
2021/07/01 09:45:22;;;;;;;3.63;2.77;;;15.80;99.90;;;;;;5092257;28;20453;-88
2021/07/01 09:47:53;;;;;;;3.60;2.50;;;15.80;99.90;;;;;;5075733;28;20554;-89
2021/07/01 09:50:24;;;;;;;2.93;2.67;;;15.70;99.90;;;;;;5076602;28;20449;-90
2021/07/01 09:52:55;;;;;;;2.43;2.03;;;15.70;99.90;;;;;;5072833;28;20868;-87
2021/07/01 09:55:27;;;;;;;3.00;2.33;;;15.90;99.90;;;;;;5075443;28;20449;-91
2021/07/01 09:57:57;;;;;;;2.10;1.90;;;15.70;99.90;;;;;;5075544;28;20450;-88
2021/07/01 10:00:30;;;;;;;2.13;1.90;;;15.80;99.90;;;;;;5075858;28;20987;-92
2021/07/01 10:03:07;;;;;;;1.83;1.70;;;15.80;99.90;;;;;;5076890;28;20533;-93
2021/07/01 10:05:38;;;;;;;2.30;1.57;;;15.60;99.90;;;;;;5074020;28;20449;-94
2021/07/01 10:08:06;;;;;;;1.93;1.70;;;15.60;99.90;;;;;;5076397;28;20489;-92
2021/07/01 10:10:45;;;;;;;1.93;1.60;;;15.60;99.90;;;;;;5069003;28;20450;-95
2021/07/01 10:13:13;;;;;;;1.60;1.50;;;15.50;99.90;;;;;;5071065;28;20472;-90
2021/07/01 10:15:41;;;;;;;1.63;1.50;;;15.40;99.90;;;;;;5076271;28;20457;-94
2021/07/01 10:18:10;;;;;;;2.00;1.80;;;15.40;99.90;;;;;;5072458;28;20875;-89
2021/07/01 10:20:39;;;;;;;1.90;1.53;;;15.40;99.90;;;;;;5070568;28;20476;-93
2021/07/01 10:23:19;;;;;;;1.03;0.93;;;15.30;99.90;;;;;;5075247;28;21039;-91
2021/07/01 10:25:48;;;;;;;3.30;1.60;;;15.20;99.90;;;;;;5075249;28;20442;-88
2021/07/01 10:28:17;;;;;;;2.20;1.80;;;15.70;99.90;;;;;;5073590;28;21001;-89
2021/07/01 10:30:55;;;;;;;1.90;1.60;;;15.70;99.90;;;;;;5072951;28;20442;-86
2021/07/01 10:33:24;;;;;;;3.37;1.40;;;15.80;99.90;;;;;;5075328;28;20825;-88
2021/07/01 10:35:52;;;;;;;1.67;1.50;;;15.60;99.90;;;;;;5074680;28;20450;-88
2021/07/01 10:38:19;;;;;;;1.50;1.40;;;15.60;99.90;;;;;;5069222;28;20540;-86
2021/07/01 10:40:49;;;;;;;1.50;1.40;;;15.60;99.90;;;;;;5071043;28;20454;-89
2021/07/01 10:43:17;;;;;;;1.73;1.43;;;15.50;99.90;;;;;;5073785;28;20457;-86
2021/07/01 10:45:56;;;;;;;1.87;1.50;;;15.70;99.90;;;;;;5074606;28;20516;-87
2021/07/01 10:48:24;;;;;;;1.50;1.40;;;15.10;99.90;;;;;;5074979;28;20504;-85
2021/07/01 10:50:53;;;;;;;1.80;1.70;;;15.20;99.90;;;;;;5075237;28;20446;-88
2021/07/01 10:53:36;;;;;;;2.10;1.90;;;15.40;99.90;;;;;;5070399;28;20807;-87
2021/07/01 10:56:09;;;;;;;1.87;1.67;;;15.00;99.90;;;;;;5074138;28;21002;-87
2021/07/01 10:58:37;;;;;;;1.67;1.57;;;15.20;99.90;;;;;;5071359;28;20453;-86
2021/07/01 11:01:06;;;;;;;1.70;1.37;;;15.20;99.90;;;;;;5073480;28;20456;-93
2021/07/01 11:03:35;;;;;;;3.23;1.60;;;14.70;99.90;;;;;;5071634;28;20516;-89
2021/07/01 11:06:04;;;;;;;1.30;1.20;;;14.50;99.90;;;;;;5023726;28;20817;-90
2021/07/01 11:08:34;;;;;;;1.70;1.60;;;14.40;99.90;;;;;;5074513;28;20496;-87
2021/07/01 11:11:03;;;;;;;1.90;1.67;;;14.40;99.90;;;;;;5074817;28;20457;-86
2021/07/01 11:13:32;;;;;;;2.20;1.50;;;14.20;99.90;;;;;;5068894;28;20449;-86
2021/07/01 11:16:10;;;;;;;2.73;2.10;;;14.30;99.90;;;;;;5011827;28;20456;-87
2021/07/01 11:18:39;;;;;;;2.03;1.93;;;13.70;99.90;;;;;;5012220;28;20483;-89
2021/07/01 11:21:11;;;;;;;1.80;1.60;;;14.10;99.90;;;;;;5006195;28;20448;-90
2021/07/01 11:23:38;;;;;;;2.00;1.80;;;;;;;;;;5010544;28;20448;-87
2021/07/01 11:26:22;;;;;;;2.30;2.10;;;14.30;99.90;;;;;;5012982;28;20540;-87
2021/07/01 11:28:51;;;;;;;5.00;2.10;;;14.30;99.90;;;;;;5010195;28;20983;-86
2021/07/01 11:31:18;;;;;;;2.77;2.00;;;14.40;99.90;;;;;;5010690;28;20471;-87
2021/07/01 11:33:51;;;;;;;4.30;2.20;;;14.30;99.90;;;;;;5041077;28;20809;-85
2021/07/01 11:36:19;;;;;;;3.80;2.50;;;14.00;99.90;;;;;;5070766;28;20442;-87
2021/07/01 11:38:48;;;;;;;3.73;2.00;;;14.20;99.90;;;;;;5070999;28;20937;-87
2021/07/01 11:41:16;;;;;;;2.40;2.00;;;;;;;;;;5069592;28;20441;-87
2021/07/01 11:43:44;;;;;;;2.20;2.00;;;14.30;99.90;;;;;;5074284;28;20540;-90
2021/07/01 11:46:12;;;;;;;2.30;2.10;;;14.60;99.90;;;;;;5069668;28;20461;-87
2021/07/01 11:48:43;;;;;;;3.27;2.33;;;;;;;;;;5072608;28;20492;-87
2021/07/01 11:51:12;;;;;;;2.00;1.60;;;14.40;99.90;;;;;;5074572;28;20446;-91
2021/07/01 11:53:39;;;;;;;2.80;2.00;;;;;;;;;;5067983;28;20483;-89
2021/07/01 11:56:06;;;;;;;2.27;2.07;;;14.50;99.90;;;;;;5076533;28;20449;-87
2021/07/01 11:58:34;;;;;;;2.80;2.17;;;;;;;;;;5073714;28;20924;-87
2021/07/01 12:01:04;;;;;;;2.13;1.93;;;15.20;99.90;;;;;;5080319;28;20446;-87
2021/07/01 12:03:33;;;;;;;2.80;2.00;;;15.60;99.90;;;;;;5029302;28;20789;-84
2021/07/01 12:06:00;;;;;;;3.97;2.00;;;15.60;99.90;;;;;;5070706;28;20465;-87
2021/07/01 12:08:28;;;;;;;2.27;2.07;;;15.30;99.90;;;;;;5077550;28;20531;-86
2021/07/01 12:11:02;;;;;;;1.80;1.60;;;15.90;99.90;;;;;;5080658;28;20820;-86
2021/07/01 12:13:45;;;;;;;2.23;1.87;;;13.80;99.90;;;;;;5079162;28;20450;-94
2021/07/01 12:16:16;;;;;;;2.13;2.00;;;15.90;99.90;;;;;;5091158;28;20449;-85
2021/07/01 12:18:55;;;;;;;5.90;1.80;;;16.10;99.90;;;;;;5086398;28;20450;-86
2021/07/01 12:21:24;;;;;;;2.23;2.03;;;15.70;99.90;;;;;;5085850;28;20455;-86
2021/07/01 12:23:53;;;;;;;1.93;1.80;;;16.20;99.90;;;;;;5085856;28;20437;-86
2021/07/01 12:26:47;;;;;;;3.77;2.50;;;16.40;99.90;;;;;;5089183;28;20451;-85
2021/07/01 12:29:20;;;;;;;2.47;2.13;;;16.10;99.90;;;;;;5098620;28;20481;-87
2021/07/01 12:31:47;;;;;;;2.73;2.53;;;;;;;;;;5078289;28;20477;-85
2021/07/01 12:34:20;;;;;;;3.03;2.73;;;17.30;99.90;;;;;;5080694;28;20445;-86
2021/07/01 12:36:59;;;;;;;2.10;1.93;;;17.00;99.90;;;;;;5080852;28;20481;-87
2021/07/01 12:39:27;;;;;;;3.10;2.13;;;17.00;99.90;;;;;;5082012;28;20959;-85
2021/07/01 12:42:22;;;;;;;3.10;2.90;;;16.80;99.90;;;;;;5075896;28;20456;-85
2021/07/01 12:44:51;;;;;;;2.00;1.80;;;;;;;;;;5062962;28;20453;-88
2021/07/01 12:47:28;;;;;;;3.77;2.47;;;16.60;99.90;;;;;;5075343;28;20527;-91
2021/07/01 12:50:06;;;;;;;3.53;3.23;;;16.20;99.90;;;;;;5078093;28;20548;-84
2021/07/01 12:52:46;;;;;;;3.23;2.80;;;16.10;99.90;;;;;;5079907;28;20468;-84
2021/07/01 12:55:25;;;;;;;3.70;3.30;;;16.00;99.90;;;;;;5078799;28;20469;-85
2021/07/01 13:00:37;;;;;;;3.60;3.10;;;15.80;99.90;;;;;;5081378;28;20441;-84
2021/07/01 13:03:08;;;;;;;3.77;2.93;;;16.30;99.90;;;;;;5079669;28;20446;-86
2021/07/01 13:05:39;;;;;;;4.70;3.10;;;16.80;99.90;;;;;;5084817;28;20445;-84
2021/07/01 13:08:07;;;;;;;3.87;2.80;;;17.00;99.90;;;;;;5077502;28;20496;-87
2021/07/01 13:10:35;;;;;;;3.40;2.53;;;;;;;;;;5076460;28;20456;-89
2021/07/01 13:13:02;;;;;;;4.20;3.03;;;17.50;99.90;;;;;;5075131;28;20796;-84
2021/07/01 13:15:29;;;;;;;4.00;3.33;;;17.00;99.90;;;;;;5078519;28;20450;-84
2021/07/01 13:18:05;;;;;;;4.33;2.87;;;17.60;99.90;;;;;;5074461;28;20788;-85
2021/07/01 13:20:33;;;;;;;3.50;3.20;;;16.10;99.90;;;;;;5027162;28;20476;-86
2021/07/01 13:23:01;;;;;;;3.47;3.00;;;17.00;99.90;;;;;;5016131;28;20823;-87
2021/07/01 13:25:29;;;;;;;3.60;3.30;;;16.70;99.90;;;;;;5015521;28;20449;-85
2021/07/01 13:27:57;;;;;;;4.20;3.80;;;17.00;99.90;;;;;;5011022;28;20488;-85
2021/07/01 13:30:28;;;;;;;3.23;2.93;;;17.20;99.90;;;;;;5012860;28;20444;-85
2021/07/01 13:32:56;;;;;;;3.50;3.20;;;17.00;99.90;;;;;;5013958;28;20468;-87
2021/07/01 13:35:24;;;;;;;4.37;3.93;;;;;;;;;;5015825;28;20546;-85
2021/07/01 13:37:53;;;;;;;3.63;2.97;;;17.10;99.90;;;;;;5010432;28;21065;-86
2021/07/01 13:40:25;;;;;;;4.23;3.83;;;17.00;99.90;;;;;;5011205;28;20467;-84
2021/07/01 13:42:54;;;;;;;4.90;3.23;;;17.60;99.90;;;;;;5011508;28;20456;-84
2021/07/01 13:45:22;;;;;;;4.60;3.60;;;17.60;99.90;;;;;;5051007;28;20449;-85
2021/07/01 13:47:51;;;;;;;5.10;4.50;;;17.60;99.90;;;;;;5076325;28;20511;-84
2021/07/01 13:50:23;;;;;;;3.73;3.40;;;17.40;99.90;;;;;;5076483;28;20549;-85
2021/07/01 13:52:51;;;;;;;4.13;3.73;;;;;;;;;;5072809;28;20504;-84
2021/07/01 13:55:24;;;;;;;3.97;3.57;;;16.90;99.90;;;;;;5076468;28;20452;-85
2021/07/01 13:57:52;;;;;;;4.10;3.50;;;;;;;;;;5072725;28;20457;-85
2021/07/01 14:00:24;;;;;;;4.27;3.87;;;16.50;99.90;;;;;;5075673;28;20456;-91
2021/07/01 14:02:51;;;;;;;4.40;3.80;;;;;;;;;;5073430;28;20433;-86
2021/07/01 14:05:26;;;;;;;4.30;3.60;;;16.50;99.90;;;;;;5074207;28;20442;-90
2021/07/01 14:07:53;;;;;;;5.10;4.43;;;;;;;;;;5069713;28;20489;-91
2021/07/01 14:10:20;;;;;;;4.90;4.30;;;;;;;;;;5076536;28;20457;-90
2021/07/01 14:12:49;;;;;;;4.90;4.00;;;16.90;99.90;;;;;;5072278;28;20934;-90
2021/07/01 14:15:17;;;;;;;4.87;3.50;;;17.00;99.90;;;;;;5068283;28;20446;-91
2021/07/01 14:17:44;;;;;;;5.70;3.73;;;;;;;;;;5071602;28;20450;-92
2021/07/01 14:20:12;;;;;;;5.30;4.30;;;;;;;;;;5071505;28;20434;-89
2021/07/01 14:22:41;;;;;;;4.87;4.23;;;16.80;99.90;;;;;;5074436;28;20430;-89
2021/07/01 14:25:36;;;;;;;4.33;3.33;;;16.70;99.90;;;;;;5073993;28;20940;-91
2021/07/01 14:28:24;;;;;;;4.57;4.10;;;16.90;99.90;;;;;;5073346;28;20574;-93
2021/07/01 14:30:53;;;;;;;4.40;3.63;;;16.80;99.90;;;;;;5076666;28;20442;-90
2021/07/01 14:33:36;;;;;;;6.00;4.43;;;16.90;99.90;;;;;;5073399;28;20474;-89
2021/07/01 14:36:19;;;;;;;4.67;3.80;;;16.50;99.90;;;;;;5078474;28;20441;-89
2021/07/01 14:38:54;;;;;;;5.20;3.90;;;15.90;99.90;;;;;;5083479;28;20446;-89